createdAt,value
2023-03-10T00:01:28.963Z,13.78
2023-03-10T00:04:01.775Z,13.87
2023-03-10T00:06:34.849Z,13.85
2023-03-10T00:09:05.773Z,13.89
2023-03-10T00:11:36.470Z,13.94
2023-03-10T00:14:07.144Z,13.79
2023-03-10T00:16:38.568Z,13.61
2023-03-10T00:19:09.523Z,13.54
2023-03-10T00:21:40.180Z,13.53
2023-03-10T00:24:11.717Z,13.46
2023-03-10T00:26:42.745Z,13.39
2023-03-10T00:29:14.057Z,13.42
2023-03-10T00:31:45.447Z,13.44
2023-03-10T00:34:16.385Z,13.42
2023-03-10T00:36:47.633Z,13.29
2023-03-10T00:39:18.669Z,13.27
2023-03-10T00:41:49.827Z,13.37
2023-03-10T00:44:20.547Z,13.44
2023-03-10T00:46:53.940Z,13.48
2023-03-10T00:49:24.680Z,13.51
2023-03-10T00:51:55.517Z,13.49
2023-03-10T00:54:26.450Z,13.44
2023-03-10T00:56:57.283Z,13.50
2023-03-10T00:59:34.868Z,13.48
2023-03-10T01:02:11.650Z,13.52
2023-03-10T01:04:45.427Z,13.64
2023-03-10T01:07:16.201Z,13.72
2023-03-10T01:09:47.024Z,13.75
2023-03-10T01:12:17.658Z,13.58
2023-03-10T01:14:48.260Z,13.46
2023-03-10T01:17:19.161Z,13.46
2023-03-10T01:19:49.962Z,13.44
2023-03-10T01:22:20.797Z,13.51
2023-03-10T01:24:51.530Z,13.61
2023-03-10T01:27:22.419Z,13.71
2023-03-10T01:29:53.152Z,13.75
2023-03-10T01:32:23.785Z,13.75
2023-03-10T01:34:54.572Z,13.80
2023-03-10T01:37:26.009Z,13.87
2023-03-10T01:39:57.079Z,13.91
2023-03-10T01:42:27.782Z,13.93
2023-03-10T01:45:07.262Z,13.94
2023-03-10T01:47:38.690Z,13.95
2023-03-10T01:50:10.856Z,13.89
2023-03-10T01:52:43.110Z,13.78
2023-03-10T01:55:16.476Z,13.78
2023-03-10T01:57:48.899Z,13.84
2023-03-10T02:00:21.006Z,13.89
2023-03-10T02:02:54.473Z,13.81
2023-03-10T02:05:26.086Z,13.80
2023-03-10T02:07:56.707Z,13.71
2023-03-10T02:10:28.164Z,13.61
2023-03-10T02:12:59.118Z,13.57
2023-03-10T02:15:30.661Z,13.49
2023-03-10T02:18:02.372Z,13.38
2023-03-10T02:20:38.886Z,13.39
2023-03-10T02:23:11.675Z,13.47
2023-03-10T02:25:44.753Z,13.48
2023-03-10T02:28:15.499Z,13.45
2023-03-10T02:30:48.785Z,13.50
2023-03-10T02:33:21.278Z,13.56
2023-03-10T02:35:52.413Z,13.65
2023-03-10T02:38:26.721Z,13.70
2023-03-10T02:40:57.761Z,13.65
2023-03-10T02:43:32.956Z,13.62
2023-03-10T02:46:12.246Z,13.57
2023-03-10T02:48:45.014Z,13.44
2023-03-10T02:51:22.294Z,13.37
2023-03-10T02:53:53.376Z,13.37
2023-03-10T02:56:24.766Z,13.43
2023-03-10T02:58:55.760Z,13.53
2023-03-10T03:01:27.943Z,13.61
2023-03-10T03:03:59.821Z,13.67
2023-03-10T03:06:32.750Z,13.75
2023-03-10T03:09:03.902Z,13.76
2023-03-10T03:11:35.028Z,13.85
2023-03-10T03:14:06.552Z,13.69
2023-03-10T03:16:37.435Z,13.46
2023-03-10T03:19:09.988Z,13.38
2023-03-10T03:21:41.845Z,13.23
2023-03-10T03:24:13.676Z,13.19
2023-03-10T03:26:44.949Z,13.07
2023-03-10T03:29:19.061Z,13.00
2023-03-10T03:31:50.174Z,12.98
2023-03-10T03:37:20.599Z,13.42
2023-03-10T03:39:51.806Z,13.05
2023-03-10T03:42:23.239Z,13.12
2023-03-10T03:44:56.347Z,13.29
2023-03-10T03:47:27.938Z,13.40
2023-03-10T03:49:58.822Z,13.16
2023-03-10T03:52:30.104Z,12.55
2023-03-10T03:55:01.221Z,12.84
2023-03-10T03:57:32.532Z,13.05
2023-03-10T04:00:04.442Z,13.37
2023-03-10T04:02:43.660Z,13.53
2023-03-10T04:05:14.378Z,13.53
2023-03-10T04:07:46.865Z,13.53
2023-03-10T04:10:19.381Z,13.71
2023-03-10T04:12:50.472Z,13.81
2023-03-10T04:15:21.613Z,13.64
2023-03-10T04:17:53.160Z,13.29
2023-03-10T04:20:25.056Z,13.54
2023-03-10T04:22:56.798Z,13.79
2023-03-10T04:25:31.911Z,13.96
2023-03-10T04:28:02.897Z,14.16
2023-03-10T04:30:33.552Z,14.16
2023-03-10T04:33:05.246Z,14.07
2023-03-10T04:35:36.632Z,14.26
2023-03-10T04:38:08.042Z,14.35
2023-03-10T04:40:38.842Z,14.44
2023-03-10T04:43:10.125Z,14.51
2023-03-10T04:45:41.496Z,14.64
2023-03-10T04:48:12.924Z,14.79
2023-03-10T04:50:43.793Z,14.92
2023-03-10T04:53:16.780Z,15.05
2023-03-10T04:55:47.584Z,14.91
2023-03-10T04:58:18.730Z,13.80
2023-03-10T05:01:02.155Z,13.58
2023-03-10T05:03:34.636Z,14.12
2023-03-10T05:06:06.109Z,14.43
2023-03-10T05:08:37.110Z,14.58
2023-03-10T05:11:08.768Z,14.43
2023-03-10T05:13:40.106Z,13.88
2023-03-10T05:16:15.680Z,13.42
2023-03-10T05:18:49.670Z,13.79
2023-03-10T05:21:22.969Z,14.08
2023-03-10T05:23:54.510Z,14.28
2023-03-10T05:26:25.662Z,14.39
2023-03-10T05:28:56.391Z,14.04
2023-03-10T05:31:38.134Z,13.76
2023-03-10T05:34:14.553Z,13.85
2023-03-10T05:36:45.589Z,14.01
2023-03-10T05:39:16.951Z,14.19
2023-03-10T05:41:49.919Z,14.32
2023-03-10T05:44:21.478Z,14.29
2023-03-10T05:46:52.942Z,14.34
2023-03-10T05:49:25.000Z,14.13
2023-03-10T05:51:56.109Z,12.87
2023-03-10T05:54:27.207Z,12.75
2023-03-10T05:56:57.923Z,13.41
2023-03-10T05:59:30.552Z,13.88
2023-03-10T06:02:01.330Z,14.15
2023-03-10T06:04:33.626Z,14.37
2023-03-10T06:07:05.345Z,14.51
2023-03-10T06:09:36.293Z,14.55
2023-03-10T06:12:07.837Z,14.08
2023-03-10T06:14:39.396Z,13.70
2023-03-10T06:17:10.225Z,14.13
2023-03-10T06:19:41.499Z,14.51
2023-03-10T06:22:13.838Z,14.81
2023-03-10T06:24:45.909Z,15.07
2023-03-10T06:27:16.554Z,15.09
2023-03-10T06:29:49.929Z,14.10
2023-03-10T06:32:20.617Z,13.86
2023-03-10T06:34:51.462Z,14.57
2023-03-10T06:37:22.143Z,15.07
2023-03-10T06:39:53.520Z,15.44
2023-03-10T06:42:24.110Z,15.40
2023-03-10T06:44:56.488Z,14.29
2023-03-10T06:47:27.023Z,13.27
2023-03-10T06:49:58.905Z,13.57
2023-03-10T06:52:29.623Z,14.54
2023-03-10T06:55:00.556Z,15.07
2023-03-10T06:57:31.174Z,15.09
2023-03-10T07:00:01.886Z,14.13
2023-03-10T07:02:32.846Z,13.35
2023-03-10T07:05:03.598Z,13.51
2023-03-10T07:07:34.317Z,14.43
2023-03-10T07:10:08.308Z,15.30
2023-03-10T07:12:39.176Z,15.63
2023-03-10T07:15:10.821Z,14.78
2023-03-10T07:17:41.450Z,13.94
2023-03-10T07:20:14.064Z,14.24
2023-03-10T07:22:44.748Z,15.29
2023-03-10T07:25:15.689Z,16.04
2023-03-10T07:27:46.455Z,16.37
2023-03-10T07:30:17.722Z,15.66
2023-03-10T07:32:48.491Z,14.81
2023-03-10T07:35:19.552Z,14.49
2023-03-10T07:37:50.379Z,15.49
2023-03-10T07:40:25.342Z,16.35
2023-03-10T07:42:56.250Z,15.87
2023-03-10T07:45:28.100Z,15.16
2023-03-10T07:47:58.834Z,14.62
2023-03-10T07:50:29.846Z,14.63
2023-03-10T07:53:00.624Z,15.62
2023-03-10T07:55:31.335Z,15.61
2023-03-10T07:58:01.885Z,15.11
2023-03-10T08:00:33.229Z,14.64
2023-03-10T08:03:03.850Z,14.27
2023-03-10T08:05:35.015Z,14.04
2023-03-10T08:08:06.753Z,13.91
2023-03-10T08:10:38.035Z,13.84
2023-03-10T08:13:09.138Z,13.82
2023-03-10T08:15:41.250Z,13.83
2023-03-10T08:18:12.207Z,14.17
2023-03-10T08:20:43.802Z,15.65
2023-03-10T08:23:14.952Z,16.77
2023-03-10T08:25:45.707Z,16.50
2023-03-10T08:28:16.205Z,16.03
2023-03-10T08:31:03.096Z,15.70
2023-03-10T08:33:34.573Z,15.49
2023-03-10T08:36:07.641Z,15.41
2023-03-10T08:38:38.602Z,15.41
2023-03-10T08:41:15.065Z,15.43
2023-03-10T08:43:48.837Z,15.45
2023-03-10T08:46:20.942Z,15.51
2023-03-10T08:48:51.870Z,15.64
2023-03-10T08:51:23.107Z,15.78
2023-03-10T08:53:54.374Z,15.89
2023-03-10T08:56:25.520Z,15.99
2023-03-10T08:58:59.228Z,16.14
2023-03-10T09:01:31.133Z,16.37
2023-03-10T09:04:02.582Z,16.64
2023-03-10T09:06:33.968Z,16.92
2023-03-10T09:09:06.603Z,17.13
2023-03-10T09:11:39.198Z,17.25
2023-03-10T09:14:10.202Z,17.24
2023-03-10T09:16:41.759Z,17.23
2023-03-10T09:19:12.672Z,17.14
2023-03-10T09:21:43.703Z,17.12
2023-03-10T09:24:14.511Z,17.15
2023-03-10T09:26:45.452Z,17.18
2023-03-10T09:29:16.199Z,17.16
2023-03-10T09:31:48.979Z,17.12
2023-03-10T09:34:19.621Z,17.19
2023-03-10T09:36:50.654Z,17.34
2023-03-10T09:39:21.593Z,17.49
2023-03-10T09:42:13.246Z,17.56
2023-03-10T09:44:47.724Z,17.67
2023-03-10T09:47:24.231Z,17.82
2023-03-10T09:50:02.814Z,17.90
2023-03-10T09:52:39.501Z,18.02
2023-03-10T09:55:16.682Z,18.18
2023-03-10T09:57:48.130Z,18.31
2023-03-10T10:00:21.941Z,18.39
2023-03-10T10:02:56.070Z,18.41
2023-03-10T10:05:28.203Z,18.54
2023-03-10T10:08:01.708Z,18.55
2023-03-10T10:10:36.662Z,18.46
2023-03-10T10:13:13.475Z,18.50
2023-03-10T10:15:45.638Z,18.57
2023-03-10T10:18:20.836Z,18.64
2023-03-10T10:20:59.273Z,18.76
2023-03-10T10:23:35.290Z,18.94
2023-03-10T10:26:10.728Z,19.00
2023-03-10T10:28:43.816Z,18.94
2023-03-10T10:31:20.795Z,19.00
2023-03-10T10:33:59.223Z,18.99
2023-03-10T10:36:31.739Z,18.97
2023-03-10T10:39:03.958Z,18.92
2023-03-10T10:41:36.478Z,18.63
2023-03-10T10:44:10.329Z,18.43
2023-03-10T10:46:51.301Z,18.34
2023-03-10T10:49:24.552Z,18.35
2023-03-10T10:52:05.569Z,18.43
2023-03-10T10:54:38.901Z,18.49
2023-03-10T10:57:18.899Z,18.59
2023-03-10T10:59:50.074Z,18.74
2023-03-10T11:02:28.503Z,18.84
2023-03-10T11:05:10.538Z,18.93
2023-03-10T11:07:42.158Z,19.01
2023-03-10T11:10:24.372Z,18.90
2023-03-10T11:12:58.030Z,18.87
2023-03-10T11:15:31.568Z,18.89
2023-03-10T11:18:05.025Z,18.86
2023-03-10T11:20:35.147Z,18.80
2023-03-10T11:23:09.824Z,18.77
2023-03-10T11:25:44.290Z,18.63
2023-03-10T11:28:28.347Z,18.45
2023-03-10T11:31:07.652Z,18.32
2023-03-10T11:33:43.806Z,18.32
2023-03-10T11:36:19.211Z,18.29
2023-03-10T11:38:51.164Z,18.27
2023-03-10T11:41:24.245Z,18.29
2023-03-10T11:43:58.107Z,18.33
2023-03-10T11:46:30.524Z,18.33
2023-03-10T11:49:07.479Z,18.33
2023-03-10T11:51:41.417Z,18.33
2023-03-10T11:54:26.608Z,18.44
2023-03-10T11:56:59.261Z,18.56
2023-03-10T11:59:33.209Z,18.51
2023-03-10T12:02:07.052Z,18.47
2023-03-10T12:04:41.952Z,18.49
2023-03-10T12:07:15.992Z,18.53
2023-03-10T12:09:50.962Z,18.41
2023-03-10T12:12:26.108Z,18.40
2023-03-10T12:14:58.232Z,18.34
2023-03-10T12:17:29.588Z,18.46
2023-03-10T12:20:24.232Z,18.55
2023-03-10T12:22:55.620Z,18.60
2023-03-10T12:25:40.191Z,18.61
2023-03-10T12:28:14.564Z,18.55
2023-03-10T12:30:49.488Z,18.48
2023-03-10T12:33:40.328Z,18.52
2023-03-10T12:36:12.794Z,18.58
2023-03-10T12:38:48.774Z,18.58
2023-03-10T12:41:35.265Z,18.65
2023-03-10T12:44:27.092Z,18.53
2023-03-10T12:47:00.612Z,18.51
2023-03-10T12:49:29.970Z,18.55
2023-03-10T12:52:08.543Z,18.58
2023-03-10T12:54:46.609Z,18.65
2023-03-10T12:57:21.046Z,18.61
2023-03-10T12:59:59.020Z,18.61
2023-03-10T13:02:33.900Z,18.50
2023-03-10T13:05:06.577Z,18.46
2023-03-10T13:07:39.455Z,18.41
2023-03-10T13:10:17.850Z,18.49
2023-03-10T13:12:50.451Z,18.56
2023-03-10T13:15:25.122Z,18.53
2023-03-10T13:17:57.017Z,18.60
2023-03-10T13:20:27.797Z,18.83
2023-03-10T13:22:59.389Z,19.35
2023-03-10T13:25:30.398Z,19.58
2023-03-10T13:28:09.473Z,19.61
2023-03-10T13:30:40.396Z,19.71
2023-03-10T13:49:06.556Z,20.42
2023-03-10T13:51:38.184Z,20.07
2023-03-10T13:54:19.999Z,19.99
2023-03-10T13:56:52.161Z,20.12
2023-03-10T13:59:23.611Z,20.16
2023-03-10T14:01:56.683Z,19.92
2023-03-10T14:04:41.255Z,19.57
2023-03-10T14:07:18.928Z,19.54
2023-03-10T14:10:12.402Z,19.55
2023-03-10T14:12:59.980Z,19.46
2023-03-10T14:15:31.987Z,19.53
2023-03-10T14:18:17.572Z,19.40
2023-03-10T14:20:48.692Z,18.99
2023-03-10T14:23:27.291Z,18.67
2023-03-10T14:25:59.287Z,18.36
2023-03-10T14:28:31.733Z,18.31
2023-03-10T14:31:04.930Z,18.33
2023-03-10T14:33:37.217Z,18.19
2023-03-10T14:36:12.304Z,17.94
2023-03-10T14:38:45.563Z,17.83
2023-03-10T14:41:18.484Z,17.92
2023-03-10T14:43:49.162Z,18.05
2023-03-10T14:46:20.714Z,18.08
2023-03-10T14:48:51.754Z,18.15
2023-03-10T14:51:35.112Z,18.18
2023-03-10T14:54:12.577Z,18.24
2023-03-10T14:56:45.265Z,18.24
2023-03-10T14:59:16.764Z,18.17
2023-03-10T15:01:47.622Z,18.06
2023-03-10T15:04:19.206Z,17.91
2023-03-10T15:06:50.660Z,17.83
2023-03-10T15:09:22.928Z,17.78
2023-03-10T15:11:55.194Z,17.73
2023-03-10T15:14:25.992Z,17.61
2023-03-10T15:16:56.672Z,17.47
2023-03-10T15:19:28.150Z,17.31
2023-03-10T15:21:59.097Z,17.18
2023-03-10T15:24:30.416Z,17.07
2023-03-10T15:27:01.323Z,16.99
2023-03-10T15:29:32.142Z,16.91
2023-03-10T15:32:03.222Z,16.79
2023-03-10T15:34:33.839Z,16.71
2023-03-10T15:37:07.726Z,16.64
2023-03-10T15:39:38.733Z,16.59
2023-03-10T15:42:12.748Z,16.52
2023-03-10T15:44:53.115Z,16.43
2023-03-10T15:47:26.372Z,16.36
2023-03-10T15:49:57.589Z,16.30
2023-03-10T15:52:28.684Z,16.25
2023-03-10T15:54:59.529Z,16.20
2023-03-10T15:57:30.517Z,16.16
2023-03-10T16:00:01.433Z,16.08
2023-03-10T16:02:32.475Z,16.03
2023-03-10T16:05:04.617Z,15.98
2023-03-10T16:07:35.566Z,15.93
2023-03-10T16:10:06.809Z,15.89
2023-03-10T16:12:37.776Z,15.82
2023-03-10T16:15:10.236Z,15.71
2023-03-10T16:17:41.390Z,15.62
2023-03-10T16:20:14.090Z,15.52
2023-03-10T16:22:45.178Z,15.41
2023-03-10T16:25:16.922Z,15.31
2023-03-10T16:27:48.308Z,15.23
2023-03-10T16:30:19.345Z,15.13
2023-03-10T16:32:51.167Z,15.06
2023-03-10T16:35:22.256Z,14.99
2023-03-10T16:37:54.106Z,14.92
2023-03-10T16:40:24.843Z,14.84
2023-03-10T16:42:56.106Z,14.77
2023-03-10T16:45:27.335Z,14.70
2023-03-10T16:47:58.684Z,14.64
2023-03-10T16:50:44.379Z,14.57
2023-03-10T16:53:17.633Z,14.50
2023-03-10T16:55:48.732Z,14.43
2023-03-10T16:58:20.109Z,14.39
2023-03-10T17:00:51.218Z,14.35
2023-03-10T17:03:23.429Z,14.34
2023-03-10T17:05:54.598Z,14.31
2023-03-10T17:08:26.262Z,14.32
2023-03-10T17:10:57.393Z,14.28
2023-03-10T17:13:28.600Z,14.20
2023-03-10T17:15:59.777Z,14.13
2023-03-10T17:18:30.722Z,14.02
2023-03-10T17:21:10.976Z,13.97
2023-03-10T17:23:41.825Z,13.92
2023-03-10T17:26:13.465Z,13.79
2023-03-10T17:28:45.414Z,13.83
2023-03-10T17:31:17.622Z,15.35
2023-03-10T17:33:48.871Z,15.02
2023-03-10T17:36:19.866Z,14.53
2023-03-10T17:38:53.501Z,15.87
2023-03-10T17:41:24.434Z,15.24
2023-03-10T17:43:56.121Z,14.13
2023-03-10T17:46:28.577Z,15.67
2023-03-10T17:49:00.268Z,14.46
2023-03-10T17:51:32.191Z,14.69
2023-03-10T17:54:03.619Z,15.39
2023-03-10T17:56:34.805Z,15.04
2023-03-10T17:59:05.718Z,13.88
2023-03-10T18:01:36.640Z,15.14
2023-03-10T18:04:07.978Z,15.14
2023-03-10T18:06:39.025Z,13.84
2023-03-10T18:09:13.341Z,14.57
2023-03-10T18:11:44.296Z,15.46
2023-03-10T18:14:15.425Z,15.63
2023-03-10T18:16:46.367Z,15.58
2023-03-10T18:19:19.191Z,15.75
2023-03-10T18:21:53.779Z,15.98
2023-03-10T18:24:24.912Z,16.11
2023-03-10T18:26:56.289Z,15.69
2023-03-10T18:29:27.308Z,15.54
2023-03-10T18:31:58.142Z,15.61
2023-03-10T18:34:29.487Z,15.70
2023-03-10T18:37:02.781Z,15.93
2023-03-10T18:39:33.604Z,15.92
2023-03-10T18:42:04.668Z,15.94
2023-03-10T18:44:35.587Z,16.03
2023-03-10T18:47:06.848Z,15.98
2023-03-10T18:49:38.221Z,15.92
2023-03-10T18:52:09.358Z,15.88
2023-03-10T18:54:40.378Z,16.16
2023-03-10T18:57:11.103Z,16.40
2023-03-10T18:59:45.066Z,16.25
2023-03-10T19:02:16.474Z,15.10
2023-03-10T19:04:48.284Z,14.80
2023-03-10T19:07:20.734Z,15.07
2023-03-10T19:09:55.544Z,15.47
2023-03-10T19:12:26.964Z,15.60
2023-03-10T19:14:59.747Z,15.70
2023-03-10T19:17:30.586Z,16.09
2023-03-10T19:20:01.953Z,16.29
2023-03-10T19:22:35.047Z,16.23
2023-03-10T19:25:07.453Z,15.48
2023-03-10T19:27:40.062Z,14.21
2023-03-10T19:30:13.056Z,14.34
2023-03-10T19:32:43.878Z,15.01
2023-03-10T19:35:16.128Z,15.55
2023-03-10T19:37:47.415Z,15.81
2023-03-10T19:40:19.823Z,15.99
2023-03-10T19:42:50.746Z,16.23
2023-03-10T19:45:21.665Z,16.29
2023-03-10T19:47:53.312Z,15.67
2023-03-10T19:50:24.396Z,14.58
2023-03-10T19:52:56.107Z,13.79
2023-03-10T19:55:28.057Z,14.29
2023-03-10T19:57:58.902Z,15.33
2023-03-10T20:00:36.318Z,15.70
2023-03-10T20:03:07.247Z,15.59
2023-03-10T20:05:38.682Z,14.40
2023-03-10T20:08:09.913Z,13.52
2023-03-10T20:10:41.432Z,14.17
2023-03-10T20:13:12.476Z,15.06
2023-03-10T20:15:43.560Z,15.57
2023-03-10T20:18:14.399Z,15.80
2023-03-10T20:20:46.055Z,15.99
2023-03-10T20:23:17.278Z,16.05
2023-03-10T20:25:48.960Z,15.15
2023-03-10T20:28:19.898Z,14.16
2023-03-10T20:30:50.639Z,13.66
2023-03-10T20:33:22.174Z,14.48
2023-03-10T20:35:53.786Z,15.39
2023-03-10T20:38:27.560Z,16.00
2023-03-10T20:40:58.399Z,16.38
2023-03-10T20:43:29.403Z,16.35
2023-03-10T20:46:00.426Z,15.30
2023-03-10T20:48:31.440Z,14.25
2023-03-10T20:51:06.644Z,13.65
2023-03-10T20:53:38.995Z,14.48
2023-03-10T20:56:10.835Z,15.39
2023-03-10T20:58:42.058Z,15.97
2023-03-10T21:01:17.386Z,16.36
2023-03-10T21:03:48.468Z,16.38
2023-03-10T21:06:19.718Z,15.40
2023-03-10T21:08:50.965Z,14.37
2023-03-10T21:11:22.079Z,13.61
2023-03-10T21:13:53.448Z,13.33
2023-03-10T21:16:24.435Z,14.26
2023-03-10T21:18:55.531Z,15.16
2023-03-10T21:21:26.577Z,15.73
2023-03-10T21:23:57.824Z,16.12
2023-03-10T21:26:28.865Z,16.16
2023-03-10T21:29:00.371Z,15.17
2023-03-10T21:31:31.220Z,14.15
2023-03-10T21:34:05.012Z,13.42
2023-03-10T21:36:36.314Z,13.13
2023-03-10T21:39:09.231Z,14.09
2023-03-10T21:41:40.640Z,15.06
2023-03-10T21:44:11.884Z,15.66
2023-03-10T21:46:43.408Z,16.05
2023-03-10T21:49:14.527Z,15.90
2023-03-10T21:51:45.733Z,14.82
2023-03-10T21:54:16.895Z,13.75
2023-03-10T21:56:48.014Z,13.22
2023-03-10T21:59:19.252Z,13.97
2023-03-10T22:01:50.466Z,14.78
2023-03-10T22:04:21.568Z,15.22
2023-03-10T22:06:52.575Z,15.48
2023-03-10T22:09:23.535Z,15.63
2023-03-10T22:11:54.409Z,15.61
2023-03-10T22:14:25.505Z,15.85
2023-03-10T22:16:56.480Z,15.83
2023-03-10T22:19:32.444Z,14.60
2023-03-10T22:22:11.910Z,13.62
2023-03-10T22:24:43.743Z,14.26
2023-03-10T22:27:14.572Z,14.88
2023-03-10T22:29:46.278Z,15.28
2023-03-10T22:32:17.130Z,15.54
2023-03-10T22:34:48.051Z,15.72
2023-03-10T22:37:19.003Z,15.82
2023-03-10T22:39:50.033Z,14.97
2023-03-10T22:42:21.050Z,13.82
2023-03-10T22:44:51.812Z,14.14
2023-03-10T22:47:22.639Z,14.72
2023-03-10T22:49:53.576Z,15.16
2023-03-10T22:52:24.614Z,15.46
2023-03-10T22:54:56.380Z,15.53
2023-03-10T22:57:27.411Z,15.67
2023-03-10T22:59:58.451Z,15.70
2023-03-10T23:02:29.534Z,15.55
2023-03-10T23:05:00.641Z,14.47
2023-03-10T23:07:31.673Z,13.27
2023-03-10T23:10:02.470Z,13.29
2023-03-10T23:12:33.358Z,14.16
2023-03-10T23:15:09.315Z,15.03
2023-03-10T23:17:43.029Z,14.52
2023-03-10T23:20:14.984Z,13.43
2023-03-10T23:22:46.609Z,13.69
2023-03-10T23:25:19.522Z,14.09
2023-03-10T23:27:50.348Z,14.50
2023-03-10T23:30:21.478Z,14.89
2023-03-10T23:32:52.775Z,15.02
2023-03-10T23:35:25.362Z,14.51
2023-03-10T23:37:57.203Z,13.38
2023-03-10T23:40:28.629Z,12.50
2023-03-10T23:43:00.792Z,12.17
2023-03-10T23:45:32.616Z,13.13
2023-03-10T23:48:05.070Z,14.09
2023-03-10T23:50:41.185Z,14.70
2023-03-10T23:53:12.660Z,15.09
2023-03-10T23:55:44.438Z,15.05
2023-03-10T23:58:16.976Z,14.04
